Terminal Aerodrome Forecast
Issued by NWS

Home | Current Version | Previous Version | Text Only | Print | Product List | Glossary Off
Versions: 1 2 3 4 5 6 7 8 9 10 11 12 13 14 15 16 17 18 19 20 21 22 23 24 25 26 27 28 29 30 31 32 33 34 35 36 37 38 39

000
FTUS43 KGRB 201000 AAB
TAFRHI
TAF AMD
KRHI 201041Z 2011/2106 30008KT P6SM SCT010 OVC015
      TEMPO 2011/2014 4SM -RA BR OVC009
     FM201400 29014G20KT P6SM OVC025
     FM202000 28012KT P6SM SCT025 OVC040
     FM210100 27006KT P6SM OVC040=

USA.gov is the U.S. government's official web portal to all federal, state and local government web resources and services.